createdAt,value
2022-09-20T00:03:05.699Z,10.44
2022-09-20T00:07:13.249Z,10.44
2022-09-20T00:11:22.420Z,10.41
2022-09-20T00:15:29.998Z,10.35
2022-09-20T00:19:37.822Z,10.34
2022-09-20T00:23:45.325Z,10.33
2022-09-20T00:27:54.295Z,10.31
2022-09-20T00:32:03.158Z,10.26
2022-09-20T00:36:10.955Z,10.23
2022-09-20T00:40:23.024Z,10.18
2022-09-20T00:44:49.796Z,10.19
2022-09-20T00:49:00.589Z,10.22
2022-09-20T00:53:11.813Z,10.24
2022-09-20T00:57:19.554Z,10.20
2022-09-20T01:01:26.921Z,10.16
2022-09-20T01:05:35.207Z,10.11
2022-09-20T01:09:42.430Z,10.10
2022-09-20T01:13:50.024Z,10.11
2022-09-20T01:17:59.865Z,10.13
2022-09-20T01:22:16.498Z,10.15
2022-09-20T01:27:00.118Z,10.14
2022-09-20T01:31:12.485Z,10.14
2022-09-20T01:35:21.576Z,10.16
2022-09-20T01:39:35.708Z,10.18
2022-09-20T01:43:48.876Z,10.21
2022-09-20T01:48:05.144Z,10.21
2022-09-20T01:52:35.712Z,10.21
2022-09-20T01:57:28.219Z,10.18
2022-09-20T02:02:08.908Z,10.19
2022-09-20T02:06:39.511Z,10.22
2022-09-20T02:11:12.795Z,10.22
2022-09-20T02:15:36.706Z,10.19
2022-09-20T02:20:09.632Z,10.14
2022-09-20T02:24:24.992Z,10.13
2022-09-20T02:28:50.860Z,10.14
2022-09-20T02:33:11.909Z,10.16
2022-09-20T02:37:34.263Z,10.13
2022-09-20T02:41:59.625Z,10.10
2022-09-20T02:46:14.537Z,10.04
2022-09-20T02:50:28.777Z,10.01
2022-09-20T02:54:44.651Z,10.02
2022-09-20T02:59:00.504Z,10.02
2022-09-20T03:03:12.814Z,10.02
2022-09-20T03:07:27.944Z,10.03
2022-09-20T03:11:44.229Z,10.01
2022-09-20T03:15:59.342Z,10.02
2022-09-20T03:20:13.428Z,10.04
2022-09-20T03:24:30.385Z,10.07
2022-09-20T03:28:56.953Z,10.10
2022-09-20T03:33:12.531Z,10.09
2022-09-20T03:37:38.287Z,10.06
2022-09-20T03:41:53.608Z,10.04
2022-09-20T03:46:11.194Z,10.05
2022-09-20T03:50:30.613Z,10.08
2022-09-20T03:55:20.869Z,10.08
2022-09-20T03:59:44.343Z,10.06
2022-09-20T04:03:57.640Z,10.01
2022-09-20T04:08:12.888Z,10.01
2022-09-20T04:12:28.881Z,10.03
2022-09-20T04:16:43.017Z,10.04
2022-09-20T04:20:55.206Z,10.02
2022-09-20T04:25:07.541Z,10.01
2022-09-20T04:29:31.505Z,10.03
2022-09-20T04:33:44.627Z,10.08
2022-09-20T04:38:06.297Z,10.10
2022-09-20T04:42:40.265Z,10.11
2022-09-20T04:47:14.302Z,10.15
2022-09-20T04:51:46.625Z,10.19
2022-09-20T04:55:57.858Z,10.18
2022-09-20T05:00:11.245Z,10.18
2022-09-20T05:04:53.785Z,10.22
2022-09-20T05:09:25.582Z,10.27
2022-09-20T05:13:39.785Z,10.28
2022-09-20T05:18:03.539Z,10.26
2022-09-20T05:22:34.988Z,10.25
2022-09-20T05:26:59.771Z,10.31
2022-09-20T05:31:19.511Z,10.37
2022-09-20T05:35:30.712Z,10.42
2022-09-20T05:39:40.556Z,10.46
2022-09-20T05:43:56.718Z,10.48
2022-09-20T05:48:11.983Z,10.53
2022-09-20T05:52:31.440Z,10.56
2022-09-20T05:56:51.456Z,10.61
2022-09-20T06:01:03.740Z,10.63
2022-09-20T06:05:17.188Z,10.63
2022-09-20T06:09:41.024Z,10.65
2022-09-20T06:14:04.501Z,10.67
2022-09-20T06:18:27.053Z,10.68
2022-09-20T06:22:42.983Z,10.67
2022-09-20T06:26:55.482Z,10.66
2022-09-20T06:31:10.332Z,10.68
2022-09-20T06:35:24.624Z,10.72
2022-09-20T06:39:59.381Z,10.80
2022-09-20T06:44:10.715Z,10.81
2022-09-20T06:48:28.549Z,10.80
2022-09-20T06:52:37.350Z,10.78
2022-09-20T06:56:44.830Z,10.79
2022-09-20T07:01:05.930Z,10.80
2022-09-20T07:05:22.650Z,10.87
2022-09-20T07:09:38.452Z,10.91
2022-09-20T07:13:52.920Z,10.94
2022-09-20T07:18:04.969Z,10.99
2022-09-20T07:22:24.106Z,11.03
2022-09-20T07:26:39.381Z,11.10
2022-09-20T07:30:52.689Z,11.12
2022-09-20T07:35:04.458Z,11.14
2022-09-20T07:39:13.415Z,11.18
2022-09-20T07:43:22.784Z,11.26
2022-09-20T07:47:36.148Z,11.35
2022-09-20T07:51:43.383Z,11.46
2022-09-20T07:56:05.265Z,11.54
2022-09-20T08:00:15.506Z,11.62
2022-09-20T08:04:22.994Z,11.78
2022-09-20T08:08:32.885Z,12.02
2022-09-20T08:17:13.744Z,12.36
2022-09-20T08:21:21.701Z,12.41
2022-09-20T08:25:29.665Z,12.43
2022-09-20T08:29:37.204Z,12.49
2022-09-20T08:33:45.309Z,12.57
2022-09-20T08:37:55.238Z,12.62
2022-09-20T08:42:13.176Z,12.63
2022-09-20T08:46:23.908Z,12.48
2022-09-20T08:50:31.724Z,12.34
2022-09-20T08:54:41.444Z,12.32
2022-09-20T08:58:50.418Z,12.41
2022-09-20T09:02:59.789Z,12.57
2022-09-20T09:07:08.603Z,12.75
2022-09-20T09:11:18.449Z,12.79
2022-09-20T09:15:30.307Z,12.76
2022-09-20T09:19:47.814Z,12.73
2022-09-20T09:24:03.407Z,12.71
2022-09-20T09:28:17.682Z,12.77
2022-09-20T09:32:29.330Z,12.85
2022-09-20T09:36:46.482Z,12.91
2022-09-20T09:40:55.912Z,12.92
2022-09-20T09:45:27.063Z,12.93
2022-09-20T09:49:36.511Z,12.93
2022-09-20T09:53:46.906Z,12.90
2022-09-20T09:57:59.633Z,12.84
2022-09-20T10:02:24.450Z,12.77
2022-09-20T10:06:38.016Z,12.65
2022-09-20T10:10:59.736Z,12.56
2022-09-20T10:15:19.451Z,12.55
2022-09-20T10:19:35.610Z,12.64
2022-09-20T10:24:03.663Z,12.76
2022-09-20T10:28:25.630Z,12.81
2022-09-20T10:32:46.547Z,12.84
2022-09-20T10:36:58.493Z,12.97
2022-09-20T10:41:36.985Z,13.10
2022-09-20T10:46:20.629Z,13.18
2022-09-20T10:50:43.787Z,13.29
2022-09-20T10:55:03.143Z,13.44
2022-09-20T10:59:28.707Z,13.54
2022-09-20T11:03:52.883Z,13.61
2022-09-20T11:08:11.962Z,13.69
2022-09-20T11:12:28.754Z,13.81
2022-09-20T11:16:42.094Z,13.97
2022-09-20T11:20:55.508Z,14.10
2022-09-20T11:25:06.811Z,14.11
2022-09-20T11:29:20.334Z,14.01
2022-09-20T11:33:30.771Z,13.89
2022-09-20T11:37:40.725Z,13.99
2022-09-20T11:41:49.162Z,14.09
2022-09-20T11:45:59.908Z,14.11
2022-09-20T11:55:15.227Z,14.30
2022-09-20T11:59:32.247Z,14.21
2022-09-20T12:03:43.134Z,14.09
2022-09-20T12:07:56.951Z,14.07
2022-09-20T12:12:24.847Z,14.26
2022-09-20T12:16:42.146Z,14.37
2022-09-20T12:21:02.884Z,14.40
2022-09-20T12:25:39.573Z,14.55
2022-09-20T12:30:15.290Z,14.76
2022-09-20T12:34:37.439Z,14.72
2022-09-20T12:38:53.870Z,14.60
2022-09-20T12:43:01.151Z,14.36
2022-09-20T12:47:17.549Z,14.07
2022-09-20T12:51:47.071Z,14.01
2022-09-20T12:56:05.879Z,13.89
2022-09-20T13:00:34.409Z,13.86
2022-09-20T13:04:56.288Z,13.83
2022-09-20T13:09:09.327Z,13.79
2022-09-20T13:13:24.041Z,13.73
2022-09-20T13:17:33.256Z,13.70
2022-09-20T13:21:44.170Z,13.71
2022-09-20T13:25:53.386Z,13.68
2022-09-20T13:30:15.849Z,13.56
2022-09-20T13:34:24.888Z,13.51
2022-09-20T13:38:35.201Z,13.47
2022-09-20T13:42:44.401Z,13.48
2022-09-20T13:46:51.875Z,13.59
2022-09-20T13:51:05.968Z,13.86
2022-09-20T13:55:31.770Z,14.29
2022-09-20T13:59:46.643Z,14.73
2022-09-20T14:03:54.247Z,15.05
2022-09-20T14:08:08.718Z,15.39
2022-09-20T14:12:23.231Z,15.78
2022-09-20T14:16:34.438Z,16.06
2022-09-20T14:20:46.939Z,16.15
2022-09-20T14:25:03.430Z,16.12
2022-09-20T14:29:32.052Z,16.11
2022-09-20T14:33:44.335Z,15.97
2022-09-20T14:37:53.687Z,15.93
2022-09-20T14:42:01.539Z,15.77
2022-09-20T14:46:19.259Z,15.56
2022-09-20T14:50:30.243Z,15.37
2022-09-20T14:54:38.886Z,15.42
2022-09-20T14:59:21.012Z,15.53
2022-09-20T15:03:31.220Z,15.67
2022-09-20T15:07:41.391Z,15.65
2022-09-20T15:11:50.110Z,15.55
2022-09-20T15:15:57.825Z,15.41
2022-09-20T15:20:06.227Z,15.23
2022-09-20T15:24:13.838Z,15.03
2022-09-20T15:28:22.684Z,14.83
2022-09-20T15:32:30.958Z,14.63
2022-09-20T15:36:38.998Z,14.47
2022-09-20T15:40:48.167Z,14.35
2022-09-20T15:44:56.761Z,14.23
2022-09-20T15:49:06.912Z,14.08
2022-09-20T15:53:14.644Z,13.99
2022-09-20T15:57:23.316Z,13.91
2022-09-20T16:01:34.445Z,13.82
2022-09-20T16:05:42.558Z,13.81
2022-09-20T16:09:49.901Z,13.83
2022-09-20T16:13:59.769Z,13.79
2022-09-20T16:18:25.870Z,13.70
2022-09-20T16:22:34.605Z,13.55
2022-09-20T16:26:42.626Z,13.36
2022-09-20T16:30:59.033Z,13.23
2022-09-20T16:35:08.431Z,13.12
2022-09-20T16:39:18.644Z,13.01
2022-09-20T16:43:26.581Z,12.98
2022-09-20T16:47:34.053Z,12.96
2022-09-20T16:51:46.361Z,12.81
2022-09-20T16:55:55.893Z,12.49
2022-09-20T17:00:03.626Z,12.19
2022-09-20T17:04:14.437Z,11.92
2022-09-20T17:08:23.499Z,11.78
2022-09-20T17:12:34.045Z,11.69
2022-09-20T17:16:42.517Z,11.62
2022-09-20T17:20:50.714Z,11.51
2022-09-20T17:24:58.987Z,11.47
2022-09-20T17:29:09.686Z,11.46
2022-09-20T17:33:19.439Z,11.44
2022-09-20T17:37:27.329Z,11.45
2022-09-20T17:41:39.178Z,11.47
2022-09-20T17:45:46.911Z,11.47
2022-09-20T17:49:55.139Z,11.45
2022-09-20T17:54:03.163Z,11.46
2022-09-20T17:58:13.995Z,11.46
2022-09-20T18:02:21.744Z,11.44
2022-09-20T18:06:30.751Z,11.44
2022-09-20T18:10:38.675Z,11.45
2022-09-20T18:14:46.244Z,11.47
2022-09-20T18:18:54.283Z,11.47
2022-09-20T18:23:02.173Z,11.45
2022-09-20T18:27:10.386Z,11.42
2022-09-20T18:31:18.842Z,11.39
2022-09-20T18:35:26.610Z,11.37
2022-09-20T18:39:35.258Z,11.33
2022-09-20T18:43:44.281Z,11.25
2022-09-20T18:47:51.923Z,11.19
2022-09-20T18:52:00.077Z,11.14
2022-09-20T18:56:22.970Z,11.12
2022-09-20T19:00:31.728Z,11.09
2022-09-20T19:05:18.047Z,11.04
2022-09-20T19:09:29.089Z,10.97
2022-09-20T19:13:45.146Z,10.88
2022-09-20T19:18:02.496Z,10.75
2022-09-20T19:22:19.898Z,10.67
2022-09-20T19:26:30.172Z,10.63
2022-09-20T19:30:42.256Z,10.59
2022-09-20T19:34:56.002Z,10.53
2022-09-20T19:39:08.827Z,10.46
2022-09-20T19:43:38.343Z,10.40
2022-09-20T19:47:51.332Z,10.37
2022-09-20T19:52:00.041Z,10.37
2022-09-20T19:56:22.351Z,10.40
2022-09-20T20:00:31.772Z,10.37
2022-09-20T20:04:40.027Z,10.30
2022-09-20T20:08:52.845Z,10.25
2022-09-20T20:13:25.242Z,10.23
2022-09-20T20:17:49.070Z,10.21
2022-09-20T20:22:01.123Z,10.21
2022-09-20T20:26:11.588Z,10.18
2022-09-20T20:30:20.925Z,10.11
2022-09-20T20:34:30.503Z,10.04
2022-09-20T20:38:38.608Z,9.99
2022-09-20T20:42:47.139Z,9.97
2022-09-20T20:46:56.395Z,9.97
2022-09-20T20:51:05.316Z,9.92
2022-09-20T20:55:13.701Z,9.87
2022-09-20T20:59:21.942Z,9.81
2022-09-20T21:03:31.003Z,9.75
2022-09-20T21:07:39.023Z,9.75
2022-09-20T21:11:48.556Z,9.74
2022-09-20T21:15:56.635Z,9.68
2022-09-20T21:20:04.779Z,9.65
2022-09-20T21:24:15.519Z,9.60
2022-09-20T21:28:23.478Z,9.57
2022-09-20T21:32:31.343Z,9.58
2022-09-20T21:36:41.496Z,9.56
2022-09-20T21:40:48.833Z,9.55
2022-09-20T21:44:56.925Z,9.51
2022-09-20T21:49:06.160Z,9.46
2022-09-20T21:53:14.500Z,9.42
2022-09-20T21:57:22.460Z,9.40
2022-09-20T22:01:33.919Z,9.38
2022-09-20T22:05:42.237Z,9.36
2022-09-20T22:09:50.410Z,9.30
2022-09-20T22:13:59.651Z,9.24
2022-09-20T22:18:07.724Z,9.23
2022-09-20T22:22:15.309Z,9.24
2022-09-20T22:26:25.863Z,9.25
2022-09-20T22:30:37.983Z,9.25
2022-09-20T22:34:45.522Z,9.21
2022-09-20T22:38:53.905Z,9.15
2022-09-20T22:43:01.755Z,9.13
2022-09-20T22:47:10.073Z,9.14
2022-09-20T22:51:20.009Z,9.15
2022-09-20T22:55:28.262Z,9.14
2022-09-20T22:59:35.859Z,9.10
2022-09-20T23:03:45.355Z,9.06
2022-09-20T23:07:53.273Z,9.04
2022-09-20T23:12:00.686Z,9.03
2022-09-20T23:16:16.489Z,9.04
2022-09-20T23:20:24.955Z,9.03
2022-09-20T23:24:33.486Z,8.97
2022-09-20T23:28:43.845Z,8.94
2022-09-20T23:32:52.563Z,8.95
2022-09-20T23:37:00.668Z,8.98
2022-09-20T23:41:10.635Z,8.99
2022-09-20T23:45:18.762Z,8.95
2022-09-20T23:49:28.067Z,8.88
2022-09-20T23:53:37.614Z,8.81
2022-09-20T23:57:45.913Z,8.77
